sensor_id;sensor_type;location;lat;lon;timestamp;temperature;humidity
8662;DHT22;29684;47.722;9.388;2023-05-14T00:02:11;11.00;99.90
8662;DHT22;29684;47.722;9.388;2023-05-14T00:04:55;11.10;99.90
8662;DHT22;29684;47.722;9.388;2023-05-14T00:07:40;11.20;99.90
8662;DHT22;29684;47.722;9.388;2023-05-14T00:10:25;11.00;99.90
8662;DHT22;29684;47.722;9.388;2023-05-14T00:13:09;11.10;99.90
8662;DHT22;29684;47.722;9.388;2023-05-14T00:15:53;11.10;99.90
8662;DHT22;29684;47.722;9.388;2023-05-14T00:18:37;11.00;99.90
8662;DHT22;29684;47.722;9.388;2023-05-14T00:21:21;10.80;99.90
8662;DHT22;29684;47.722;9.388;2023-05-14T00:24:06;10.70;99.90
8662;DHT22;29684;47.722;9.388;2023-05-14T00:26:51;10.70;99.90
8662;DHT22;29684;47.722;9.388;2023-05-14T00:29:35;10.70;99.90
8662;DHT22;29684;47.722;9.388;2023-05-14T00:32:19;10.70;99.90
8662;DHT22;29684;47.722;9.388;2023-05-14T00:35:03;10.60;99.90
8662;DHT22;29684;47.722;9.388;2023-05-14T00:37:47;10.60;99.90
8662;DHT22;29684;47.722;9.388;2023-05-14T00:40:31;10.60;99.90
8662;DHT22;29684;47.722;9.388;2023-05-14T00:43:19;10.60;99.90
8662;DHT22;29684;47.722;9.388;2023-05-14T00:46:04;10.60;99.90
8662;DHT22;29684;47.722;9.388;2023-05-14T00:48:49;10.80;99.90
8662;DHT22;29684;47.722;9.388;2023-05-14T00:51:33;10.80;99.90
8662;DHT22;29684;47.722;9.388;2023-05-14T00:54:18;10.70;99.90
8662;DHT22;29684;47.722;9.388;2023-05-14T00:57:04;10.70;99.90
8662;DHT22;29684;47.722;9.388;2023-05-14T00:59:49;10.70;99.90
8662;DHT22;29684;47.722;9.388;2023-05-14T01:02:34;10.80;99.90
8662;DHT22;29684;47.722;9.388;2023-05-14T01:05:18;10.80;99.90
8662;DHT22;29684;47.722;9.388;2023-05-14T01:11:29;10.80;99.90
8662;DHT22;29684;47.722;9.388;2023-05-14T01:14:37;10.80;99.90
8662;DHT22;29684;47.722;9.388;2023-05-14T01:17:27;10.80;99.90
8662;DHT22;29684;47.722;9.388;2023-05-14T01:20:13;10.90;99.90
8662;DHT22;29684;47.722;9.388;2023-05-14T01:22:58;10.90;99.90
8662;DHT22;29684;47.722;9.388;2023-05-14T01:25:42;10.90;99.90
8662;DHT22;29684;47.722;9.388;2023-05-14T01:28:31;10.90;99.90
8662;DHT22;29684;47.722;9.388;2023-05-14T01:31:18;10.90;99.90
8662;DHT22;29684;47.722;9.388;2023-05-14T01:34:11;11.00;99.90
8662;DHT22;29684;47.722;9.388;2023-05-14T01:36:57;11.00;99.90
8662;DHT22;29684;47.722;9.388;2023-05-14T01:39:42;11.10;99.90
8662;DHT22;29684;47.722;9.388;2023-05-14T01:42:27;11.10;99.90
8662;DHT22;29684;47.722;9.388;2023-05-14T01:45:12;11.10;99.90
8662;DHT22;29684;47.722;9.388;2023-05-14T01:47:56;11.10;99.90
8662;DHT22;29684;47.722;9.388;2023-05-14T01:50:41;10.90;99.90
8662;DHT22;29684;47.722;9.388;2023-05-14T01:53:25;10.80;99.90
8662;DHT22;29684;47.722;9.388;2023-05-14T01:56:09;10.80;99.90
8662;DHT22;29684;47.722;9.388;2023-05-14T01:58:53;10.90;99.90
8662;DHT22;29684;47.722;9.388;2023-05-14T02:01:38;10.80;99.90
8662;DHT22;29684;47.722;9.388;2023-05-14T02:04:22;10.80;99.90
8662;DHT22;29684;47.722;9.388;2023-05-14T02:07:06;10.80;99.90
8662;DHT22;29684;47.722;9.388;2023-05-14T02:09:50;10.70;99.90
8662;DHT22;29684;47.722;9.388;2023-05-14T02:12:34;10.70;99.90
8662;DHT22;29684;47.722;9.388;2023-05-14T02:15:18;10.70;99.90
8662;DHT22;29684;47.722;9.388;2023-05-14T02:18:02;10.70;99.90
8662;DHT22;29684;47.722;9.388;2023-05-14T02:20:46;10.70;99.90
8662;DHT22;29684;47.722;9.388;2023-05-14T02:23:30;10.70;99.90
8662;DHT22;29684;47.722;9.388;2023-05-14T02:26:14;10.70;99.90
8662;DHT22;29684;47.722;9.388;2023-05-14T02:28:58;10.70;99.90
8662;DHT22;29684;47.722;9.388;2023-05-14T02:31:42;10.70;99.90
8662;DHT22;29684;47.722;9.388;2023-05-14T02:34:27;10.60;99.90
8662;DHT22;29684;47.722;9.388;2023-05-14T02:37:11;10.70;99.90
8662;DHT22;29684;47.722;9.388;2023-05-14T02:39:55;10.80;99.90
8662;DHT22;29684;47.722;9.388;2023-05-14T02:42:39;10.80;99.90
8662;DHT22;29684;47.722;9.388;2023-05-14T02:45:23;10.80;99.90
8662;DHT22;29684;47.722;9.388;2023-05-14T02:48:07;10.90;99.90
8662;DHT22;29684;47.722;9.388;2023-05-14T02:50:51;10.90;99.90
8662;DHT22;29684;47.722;9.388;2023-05-14T02:53:35;10.90;99.90
8662;DHT22;29684;47.722;9.388;2023-05-14T02:56:19;11.00;99.90
8662;DHT22;29684;47.722;9.388;2023-05-14T02:59:04;10.90;99.90
8662;DHT22;29684;47.722;9.388;2023-05-14T03:01:48;11.00;99.90
8662;DHT22;29684;47.722;9.388;2023-05-14T03:04:32;11.10;99.90
8662;DHT22;29684;47.722;9.388;2023-05-14T03:07:16;11.10;99.90
8662;DHT22;29684;47.722;9.388;2023-05-14T03:10:00;11.30;99.90
8662;DHT22;29684;47.722;9.388;2023-05-14T03:12:44;11.40;99.90
8662;DHT22;29684;47.722;9.388;2023-05-14T03:15:28;11.50;99.90
8662;DHT22;29684;47.722;9.388;2023-05-14T03:18:13;11.50;99.90
8662;DHT22;29684;47.722;9.388;2023-05-14T03:20:57;11.20;99.90
8662;DHT22;29684;47.722;9.388;2023-05-14T03:23:41;11.60;99.90
8662;DHT22;29684;47.722;9.388;2023-05-14T03:26:25;11.50;99.90
8662;DHT22;29684;47.722;9.388;2023-05-14T03:29:09;11.60;99.90
8662;DHT22;29684;47.722;9.388;2023-05-14T03:31:53;11.60;99.90
8662;DHT22;29684;47.722;9.388;2023-05-14T03:34:37;11.60;99.90
8662;DHT22;29684;47.722;9.388;2023-05-14T03:37:22;11.60;99.90
8662;DHT22;29684;47.722;9.388;2023-05-14T03:40:06;11.60;99.90
8662;DHT22;29684;47.722;9.388;2023-05-14T03:42:50;11.60;99.90
8662;DHT22;29684;47.722;9.388;2023-05-14T03:45:34;11.60;99.90
8662;DHT22;29684;47.722;9.388;2023-05-14T03:48:19;11.80;99.90
8662;DHT22;29684;47.722;9.388;2023-05-14T03:51:03;11.60;99.90
8662;DHT22;29684;47.722;9.388;2023-05-14T03:53:48;11.40;99.90
8662;DHT22;29684;47.722;9.388;2023-05-14T03:56:32;11.40;99.90
8662;DHT22;29684;47.722;9.388;2023-05-14T03:59:16;11.40;99.90
8662;DHT22;29684;47.722;9.388;2023-05-14T04:02:00;11.40;99.90
8662;DHT22;29684;47.722;9.388;2023-05-14T04:04:44;11.30;99.90
8662;DHT22;29684;47.722;9.388;2023-05-14T04:07:29;11.30;99.90
8662;DHT22;29684;47.722;9.388;2023-05-14T04:10:13;11.20;99.90
8662;DHT22;29684;47.722;9.388;2023-05-14T04:12:57;11.10;99.90
8662;DHT22;29684;47.722;9.388;2023-05-14T04:15:42;11.10;99.90
8662;DHT22;29684;47.722;9.388;2023-05-14T04:18:26;11.00;99.90
8662;DHT22;29684;47.722;9.388;2023-05-14T04:21:10;11.00;99.90
8662;DHT22;29684;47.722;9.388;2023-05-14T04:23:54;11.10;99.90
8662;DHT22;29684;47.722;9.388;2023-05-14T04:26:39;11.10;99.90
8662;DHT22;29684;47.722;9.388;2023-05-14T04:29:23;11.10;99.90
8662;DHT22;29684;47.722;9.388;2023-05-14T04:32:07;11.30;99.90
8662;DHT22;29684;47.722;9.388;2023-05-14T04:34:51;11.20;99.90
8662;DHT22;29684;47.722;9.388;2023-05-14T04:37:35;11.10;99.90
8662;DHT22;29684;47.722;9.388;2023-05-14T04:40:19;11.10;99.90
8662;DHT22;29684;47.722;9.388;2023-05-14T04:43:05;11.10;99.90
8662;DHT22;29684;47.722;9.388;2023-05-14T04:45:50;11.10;99.90
8662;DHT22;29684;47.722;9.388;2023-05-14T04:48:37;11.10;99.90
8662;DHT22;29684;47.722;9.388;2023-05-14T04:51:22;11.00;99.90
8662;DHT22;29684;47.722;9.388;2023-05-14T04:54:06;11.10;99.90
8662;DHT22;29684;47.722;9.388;2023-05-14T04:56:51;11.00;99.90
8662;DHT22;29684;47.722;9.388;2023-05-14T04:59:35;11.00;99.90
8662;DHT22;29684;47.722;9.388;2023-05-14T05:02:19;11.10;99.90
8662;DHT22;29684;47.722;9.388;2023-05-14T05:05:04;11.10;99.90
8662;DHT22;29684;47.722;9.388;2023-05-14T05:07:48;11.10;99.90
8662;DHT22;29684;47.722;9.388;2023-05-14T05:10:32;11.20;99.90
8662;DHT22;29684;47.722;9.388;2023-05-14T05:13:17;11.20;99.90
8662;DHT22;29684;47.722;9.388;2023-05-14T05:16:01;11.20;99.90
8662;DHT22;29684;47.722;9.388;2023-05-14T05:18:45;11.10;99.90
8662;DHT22;29684;47.722;9.388;2023-05-14T05:21:29;11.10;99.90
8662;DHT22;29684;47.722;9.388;2023-05-14T05:24:14;11.10;99.90
8662;DHT22;29684;47.722;9.388;2023-05-14T05:26:58;11.10;99.90
8662;DHT22;29684;47.722;9.388;2023-05-14T05:29:43;11.20;99.90
8662;DHT22;29684;47.722;9.388;2023-05-14T05:32:27;11.10;99.90
8662;DHT22;29684;47.722;9.388;2023-05-14T05:35:12;11.20;99.90
8662;DHT22;29684;47.722;9.388;2023-05-14T05:37:56;11.20;99.90
8662;DHT22;29684;47.722;9.388;2023-05-14T05:40:40;11.20;99.90
8662;DHT22;29684;47.722;9.388;2023-05-14T05:43:24;12.00;99.90
8662;DHT22;29684;47.722;9.388;2023-05-14T05:46:09;11.20;99.90
8662;DHT22;29684;47.722;9.388;2023-05-14T05:48:53;11.20;99.90
8662;DHT22;29684;47.722;9.388;2023-05-14T05:51:37;11.30;99.90
8662;DHT22;29684;47.722;9.388;2023-05-14T05:54:22;11.40;99.90
8662;DHT22;29684;47.722;9.388;2023-05-14T05:57:07;11.50;99.90
8662;DHT22;29684;47.722;9.388;2023-05-14T05:59:51;11.50;99.90
8662;DHT22;29684;47.722;9.388;2023-05-14T06:02:36;11.60;99.90
8662;DHT22;29684;47.722;9.388;2023-05-14T06:05:20;11.60;99.90
8662;DHT22;29684;47.722;9.388;2023-05-14T06:08:04;11.80;99.90
8662;DHT22;29684;47.722;9.388;2023-05-14T06:10:49;11.80;99.90
8662;DHT22;29684;47.722;9.388;2023-05-14T06:13:33;12.00;99.90
8662;DHT22;29684;47.722;9.388;2023-05-14T06:16:17;12.00;99.90
8662;DHT22;29684;47.722;9.388;2023-05-14T06:19:01;12.00;99.90
8662;DHT22;29684;47.722;9.388;2023-05-14T06:21:45;12.00;99.90
8662;DHT22;29684;47.722;9.388;2023-05-14T06:24:29;12.00;99.90
8662;DHT22;29684;47.722;9.388;2023-05-14T06:27:13;12.20;99.90
8662;DHT22;29684;47.722;9.388;2023-05-14T06:29:57;12.20;99.90
8662;DHT22;29684;47.722;9.388;2023-05-14T06:32:42;12.20;99.90
8662;DHT22;29684;47.722;9.388;2023-05-14T06:35:26;12.10;99.90
8662;DHT22;29684;47.722;9.388;2023-05-14T06:38:10;11.90;99.90
8662;DHT22;29684;47.722;9.388;2023-05-14T06:40:54;11.90;99.90
8662;DHT22;29684;47.722;9.388;2023-05-14T06:43:39;11.90;99.90
8662;DHT22;29684;47.722;9.388;2023-05-14T06:46:23;12.00;99.90
8662;DHT22;29684;47.722;9.388;2023-05-14T06:49:07;12.00;99.90
8662;DHT22;29684;47.722;9.388;2023-05-14T06:51:51;12.00;99.90
8662;DHT22;29684;47.722;9.388;2023-05-14T06:54:36;12.00;99.90
8662;DHT22;29684;47.722;9.388;2023-05-14T06:57:20;12.00;99.90
8662;DHT22;29684;47.722;9.388;2023-05-14T07:00:05;12.10;99.90
8662;DHT22;29684;47.722;9.388;2023-05-14T07:02:50;12.20;99.90
8662;DHT22;29684;47.722;9.388;2023-05-14T07:05:34;12.30;99.90
8662;DHT22;29684;47.722;9.388;2023-05-14T07:08:18;12.40;99.90
8662;DHT22;29684;47.722;9.388;2023-05-14T07:11:02;12.50;99.90
8662;DHT22;29684;47.722;9.388;2023-05-14T07:13:47;12.40;99.90
8662;DHT22;29684;47.722;9.388;2023-05-14T07:16:31;12.50;99.90
8662;DHT22;29684;47.722;9.388;2023-05-14T07:19:15;12.50;99.90
8662;DHT22;29684;47.722;9.388;2023-05-14T07:21:59;12.40;99.90
8662;DHT22;29684;47.722;9.388;2023-05-14T07:24:43;12.60;99.90
8662;DHT22;29684;47.722;9.388;2023-05-14T07:27:28;12.60;99.90
8662;DHT22;29684;47.722;9.388;2023-05-14T07:30:12;12.60;99.90
8662;DHT22;29684;47.722;9.388;2023-05-14T07:32:56;12.70;99.90
8662;DHT22;29684;47.722;9.388;2023-05-14T07:35:40;12.50;99.90
8662;DHT22;29684;47.722;9.388;2023-05-14T07:38:25;12.70;99.90
8662;DHT22;29684;47.722;9.388;2023-05-14T07:41:09;12.80;99.90
8662;DHT22;29684;47.722;9.388;2023-05-14T07:43:54;12.80;99.90
8662;DHT22;29684;47.722;9.388;2023-05-14T07:46:39;12.70;99.90
8662;DHT22;29684;47.722;9.388;2023-05-14T07:49:23;12.50;99.90
8662;DHT22;29684;47.722;9.388;2023-05-14T07:52:07;12.30;99.90
8662;DHT22;29684;47.722;9.388;2023-05-14T07:54:52;12.10;99.90
8662;DHT22;29684;47.722;9.388;2023-05-14T07:57:37;12.00;99.90
8662;DHT22;29684;47.722;9.388;2023-05-14T08:00:21;12.20;99.90
8662;DHT22;29684;47.722;9.388;2023-05-14T08:03:05;12.30;99.90
8662;DHT22;29684;47.722;9.388;2023-05-14T08:05:50;12.20;99.90
8662;DHT22;29684;47.722;9.388;2023-05-14T08:08:35;12.30;99.90
8662;DHT22;29684;47.722;9.388;2023-05-14T08:11:19;12.30;99.90
8662;DHT22;29684;47.722;9.388;2023-05-14T08:14:05;12.10;99.90
8662;DHT22;29684;47.722;9.388;2023-05-14T08:16:49;12.30;99.90
8662;DHT22;29684;47.722;9.388;2023-05-14T08:19:34;12.40;99.90
8662;DHT22;29684;47.722;9.388;2023-05-14T08:22:18;12.40;99.90
8662;DHT22;29684;47.722;9.388;2023-05-14T08:25:02;12.60;99.90
8662;DHT22;29684;47.722;9.388;2023-05-14T08:27:49;12.60;99.90
8662;DHT22;29684;47.722;9.388;2023-05-14T08:30:33;12.70;99.90
8662;DHT22;29684;47.722;9.388;2023-05-14T08:33:18;12.60;99.90
8662;DHT22;29684;47.722;9.388;2023-05-14T08:36:02;12.70;99.90
8662;DHT22;29684;47.722;9.388;2023-05-14T08:38:46;12.70;99.90
8662;DHT22;29684;47.722;9.388;2023-05-14T08:41:31;12.70;99.90
8662;DHT22;29684;47.722;9.388;2023-05-14T08:44:19;13.00;99.90
8662;DHT22;29684;47.722;9.388;2023-05-14T08:47:04;13.20;99.90
8662;DHT22;29684;47.722;9.388;2023-05-14T08:49:55;13.30;99.90
8662;DHT22;29684;47.722;9.388;2023-05-14T08:52:41;13.40;99.90
8662;DHT22;29684;47.722;9.388;2023-05-14T08:55:27;13.30;99.90
8662;DHT22;29684;47.722;9.388;2023-05-14T08:58:12;13.80;99.90
8662;DHT22;29684;47.722;9.388;2023-05-14T09:00:56;13.40;99.90
8662;DHT22;29684;47.722;9.388;2023-05-14T09:03:40;13.60;99.90
8662;DHT22;29684;47.722;9.388;2023-05-14T09:06:26;13.70;99.90
8662;DHT22;29684;47.722;9.388;2023-05-14T09:09:10;13.60;99.90
8662;DHT22;29684;47.722;9.388;2023-05-14T09:11:55;13.80;99.90
8662;DHT22;29684;47.722;9.388;2023-05-14T09:14:40;14.10;99.90
8662;DHT22;29684;47.722;9.388;2023-05-14T09:17:25;14.10;99.90
8662;DHT22;29684;47.722;9.388;2023-05-14T09:20:11;14.10;99.90
8662;DHT22;29684;47.722;9.388;2023-05-14T09:22:56;14.20;99.90
8662;DHT22;29684;47.722;9.388;2023-05-14T09:25:41;14.30;99.90
8662;DHT22;29684;47.722;9.388;2023-05-14T09:28:25;14.30;99.90
8662;DHT22;29684;47.722;9.388;2023-05-14T09:31:11;14.40;99.90
8662;DHT22;29684;47.722;9.388;2023-05-14T09:33:55;14.40;99.90
8662;DHT22;29684;47.722;9.388;2023-05-14T09:36:39;14.40;99.90
8662;DHT22;29684;47.722;9.388;2023-05-14T09:39:24;14.60;99.90
8662;DHT22;29684;47.722;9.388;2023-05-14T09:42:09;14.40;99.90
8662;DHT22;29684;47.722;9.388;2023-05-14T09:44:54;14.50;99.90
8662;DHT22;29684;47.722;9.388;2023-05-14T09:47:38;14.60;99.90
8662;DHT22;29684;47.722;9.388;2023-05-14T09:50:23;14.70;99.90
8662;DHT22;29684;47.722;9.388;2023-05-14T09:53:09;14.70;99.90
8662;DHT22;29684;47.722;9.388;2023-05-14T09:55:54;14.90;99.90
8662;DHT22;29684;47.722;9.388;2023-05-14T09:58:38;15.00;99.90
8662;DHT22;29684;47.722;9.388;2023-05-14T10:01:23;14.70;99.90
8662;DHT22;29684;47.722;9.388;2023-05-14T10:04:09;14.60;99.90
8662;DHT22;29684;47.722;9.388;2023-05-14T10:06:54;14.70;99.90
8662;DHT22;29684;47.722;9.388;2023-05-14T10:09:40;15.30;99.90
8662;DHT22;29684;47.722;9.388;2023-05-14T10:12:31;15.20;99.90
8662;DHT22;29684;47.722;9.388;2023-05-14T10:15:21;15.10;99.90
8662;DHT22;29684;47.722;9.388;2023-05-14T10:18:10;14.80;99.90
8662;DHT22;29684;47.722;9.388;2023-05-14T10:21:05;15.20;99.90
8662;DHT22;29684;47.722;9.388;2023-05-14T10:23:50;15.40;99.90
8662;DHT22;29684;47.722;9.388;2023-05-14T10:26:38;15.70;99.90
8662;DHT22;29684;47.722;9.388;2023-05-14T10:29:34;15.60;99.90
8662;DHT22;29684;47.722;9.388;2023-05-14T10:32:22;15.30;99.90
8662;DHT22;29684;47.722;9.388;2023-05-14T10:35:19;15.20;99.90
8662;DHT22;29684;47.722;9.388;2023-05-14T10:38:08;15.30;99.90
8662;DHT22;29684;47.722;9.388;2023-05-14T10:41:09;15.30;99.90
8662;DHT22;29684;47.722;9.388;2023-05-14T10:43:56;15.20;99.90
8662;DHT22;29684;47.722;9.388;2023-05-14T10:46:41;15.60;99.90
8662;DHT22;29684;47.722;9.388;2023-05-14T10:49:26;15.40;99.90
8662;DHT22;29684;47.722;9.388;2023-05-14T10:52:11;15.40;99.90
8662;DHT22;29684;47.722;9.388;2023-05-14T10:54:57;15.20;99.90
8662;DHT22;29684;47.722;9.388;2023-05-14T10:57:43;15.30;99.90
8662;DHT22;29684;47.722;9.388;2023-05-14T11:00:27;15.40;99.90
8662;DHT22;29684;47.722;9.388;2023-05-14T11:03:11;15.70;99.90
8662;DHT22;29684;47.722;9.388;2023-05-14T11:05:58;16.10;99.90
8662;DHT22;29684;47.722;9.388;2023-05-14T11:08:43;16.60;99.90
8662;DHT22;29684;47.722;9.388;2023-05-14T11:11:29;16.00;99.90
8662;DHT22;29684;47.722;9.388;2023-05-14T11:14:13;15.60;99.90
8662;DHT22;29684;47.722;9.388;2023-05-14T11:16:57;15.50;99.90
8662;DHT22;29684;47.722;9.388;2023-05-14T11:19:42;15.30;99.90
8662;DHT22;29684;47.722;9.388;2023-05-14T11:22:28;15.40;99.90
8662;DHT22;29684;47.722;9.388;2023-05-14T11:25:13;15.30;99.90
8662;DHT22;29684;47.722;9.388;2023-05-14T11:27:57;15.50;99.90
8662;DHT22;29684;47.722;9.388;2023-05-14T11:30:44;15.70;99.90
8662;DHT22;29684;47.722;9.388;2023-05-14T11:33:29;15.90;99.90
8662;DHT22;29684;47.722;9.388;2023-05-14T11:36:14;16.20;99.90
8662;DHT22;29684;47.722;9.388;2023-05-14T11:38:59;15.90;99.90
8662;DHT22;29684;47.722;9.388;2023-05-14T11:41:46;15.60;99.90
8662;DHT22;29684;47.722;9.388;2023-05-14T11:44:31;15.90;99.90
8662;DHT22;29684;47.722;9.388;2023-05-14T11:47:17;15.80;99.90
8662;DHT22;29684;47.722;9.388;2023-05-14T11:50:02;16.00;99.90
8662;DHT22;29684;47.722;9.388;2023-05-14T11:52:49;16.10;99.90
8662;DHT22;29684;47.722;9.388;2023-05-14T11:55:34;16.30;99.90
8662;DHT22;29684;47.722;9.388;2023-05-14T11:58:20;16.40;99.90
8662;DHT22;29684;47.722;9.388;2023-05-14T12:01:04;16.40;99.90
8662;DHT22;29684;47.722;9.388;2023-05-14T12:03:49;16.50;99.90
8662;DHT22;29684;47.722;9.388;2023-05-14T12:06:34;16.70;99.90
8662;DHT22;29684;47.722;9.388;2023-05-14T12:09:20;17.20;99.90
8662;DHT22;29684;47.722;9.388;2023-05-14T12:12:11;17.10;99.90
8662;DHT22;29684;47.722;9.388;2023-05-14T12:14:58;16.90;99.90
8662;DHT22;29684;47.722;9.388;2023-05-14T12:17:48;17.10;99.90
8662;DHT22;29684;47.722;9.388;2023-05-14T12:20:33;18.10;99.90
8662;DHT22;29684;47.722;9.388;2023-05-14T12:23:25;17.90;99.90
8662;DHT22;29684;47.722;9.388;2023-05-14T12:26:09;17.70;99.90
8662;DHT22;29684;47.722;9.388;2023-05-14T12:29:02;17.90;99.90
8662;DHT22;29684;47.722;9.388;2023-05-14T12:31:48;18.60;99.90
8662;DHT22;29684;47.722;9.388;2023-05-14T12:34:33;18.40;99.90
8662;DHT22;29684;47.722;9.388;2023-05-14T12:37:17;18.40;99.90
8662;DHT22;29684;47.722;9.388;2023-05-14T12:40:03;18.50;99.90
8662;DHT22;29684;47.722;9.388;2023-05-14T12:42:48;18.70;99.90
8662;DHT22;29684;47.722;9.388;2023-05-14T12:45:32;18.20;99.90
8662;DHT22;29684;47.722;9.388;2023-05-14T12:48:16;17.30;99.90
8662;DHT22;29684;47.722;9.388;2023-05-14T12:51:00;16.70;99.90
8662;DHT22;29684;47.722;9.388;2023-05-14T12:53:44;16.40;99.90
8662;DHT22;29684;47.722;9.388;2023-05-14T12:56:28;17.00;99.90
8662;DHT22;29684;47.722;9.388;2023-05-14T12:59:14;17.40;99.90
8662;DHT22;29684;47.722;9.388;2023-05-14T13:01:59;16.80;99.90
8662;DHT22;29684;47.722;9.388;2023-05-14T13:04:43;15.90;99.90
8662;DHT22;29684;47.722;9.388;2023-05-14T13:07:28;16.80;99.90
8662;DHT22;29684;47.722;9.388;2023-05-14T13:10:13;16.90;99.90
8662;DHT22;29684;47.722;9.388;2023-05-14T13:12:57;16.80;99.90
8662;DHT22;29684;47.722;9.388;2023-05-14T13:15:41;16.80;99.90
8662;DHT22;29684;47.722;9.388;2023-05-14T13:18:25;16.50;99.90
8662;DHT22;29684;47.722;9.388;2023-05-14T13:21:10;16.90;99.90
8662;DHT22;29684;47.722;9.388;2023-05-14T13:23:55;17.20;99.90
8662;DHT22;29684;47.722;9.388;2023-05-14T13:26:39;17.70;99.90
8662;DHT22;29684;47.722;9.388;2023-05-14T13:29:23;17.90;99.90
8662;DHT22;29684;47.722;9.388;2023-05-14T13:32:08;18.50;99.90
8662;DHT22;29684;47.722;9.388;2023-05-14T13:34:52;17.20;99.90
8662;DHT22;29684;47.722;9.388;2023-05-14T13:37:36;18.60;99.90
8662;DHT22;29684;47.722;9.388;2023-05-14T13:40:20;18.70;99.90
8662;DHT22;29684;47.722;9.388;2023-05-14T13:43:04;18.90;99.90
8662;DHT22;29684;47.722;9.388;2023-05-14T13:45:49;18.50;99.90
8662;DHT22;29684;47.722;9.388;2023-05-14T13:48:34;18.90;99.90
8662;DHT22;29684;47.722;9.388;2023-05-14T13:51:21;18.90;99.90
8662;DHT22;29684;47.722;9.388;2023-05-14T13:54:05;18.50;99.90
8662;DHT22;29684;47.722;9.388;2023-05-14T13:56:49;18.60;99.90
8662;DHT22;29684;47.722;9.388;2023-05-14T13:59:34;19.10;99.90
8662;DHT22;29684;47.722;9.388;2023-05-14T14:02:18;19.40;99.90
8662;DHT22;29684;47.722;9.388;2023-05-14T14:05:02;19.40;99.90
8662;DHT22;29684;47.722;9.388;2023-05-14T14:07:47;19.20;99.90
8662;DHT22;29684;47.722;9.388;2023-05-14T14:10:31;18.90;99.90
8662;DHT22;29684;47.722;9.388;2023-05-14T14:13:15;18.90;99.90
8662;DHT22;29684;47.722;9.388;2023-05-14T14:15:59;18.70;99.90
8662;DHT22;29684;47.722;9.388;2023-05-14T14:18:46;18.90;99.90
8662;DHT22;29684;47.722;9.388;2023-05-14T14:21:30;18.80;99.90
8662;DHT22;29684;47.722;9.388;2023-05-14T14:24:14;19.40;99.90
8662;DHT22;29684;47.722;9.388;2023-05-14T14:26:58;19.00;99.90
8662;DHT22;29684;47.722;9.388;2023-05-14T14:29:43;18.80;99.90
8662;DHT22;29684;47.722;9.388;2023-05-14T14:32:28;19.60;99.90
8662;DHT22;29684;47.722;9.388;2023-05-14T14:35:13;20.00;99.90
8662;DHT22;29684;47.722;9.388;2023-05-14T14:37:57;20.40;99.90
8662;DHT22;29684;47.722;9.388;2023-05-14T14:40:42;21.00;99.90
8662;DHT22;29684;47.722;9.388;2023-05-14T14:43:28;21.30;99.90
8662;DHT22;29684;47.722;9.388;2023-05-14T14:46:12;21.80;99.90
8662;DHT22;29684;47.722;9.388;2023-05-14T14:48:56;22.70;99.90
8662;DHT22;29684;47.722;9.388;2023-05-14T14:51:40;22.80;99.90
8662;DHT22;29684;47.722;9.388;2023-05-14T14:54:25;22.10;99.90
8662;DHT22;29684;47.722;9.388;2023-05-14T14:57:09;21.40;99.90
8662;DHT22;29684;47.722;9.388;2023-05-14T14:59:53;20.70;99.90
8662;DHT22;29684;47.722;9.388;2023-05-14T15:02:37;20.10;99.90
8662;DHT22;29684;47.722;9.388;2023-05-14T15:05:24;19.90;99.90
8662;DHT22;29684;47.722;9.388;2023-05-14T15:08:09;20.00;99.90
8662;DHT22;29684;47.722;9.388;2023-05-14T15:10:54;19.70;99.90
8662;DHT22;29684;47.722;9.388;2023-05-14T15:13:38;19.70;99.90
8662;DHT22;29684;47.722;9.388;2023-05-14T15:16:25;22.00;99.90
8662;DHT22;29684;47.722;9.388;2023-05-14T15:19:09;24.30;99.90
8662;DHT22;29684;47.722;9.388;2023-05-14T15:21:54;25.40;99.90
8662;DHT22;29684;47.722;9.388;2023-05-14T15:24:38;26.30;99.90
8662;DHT22;29684;47.722;9.388;2023-05-14T15:27:22;25.30;99.90
8662;DHT22;29684;47.722;9.388;2023-05-14T15:30:07;24.00;99.90
8662;DHT22;29684;47.722;9.388;2023-05-14T15:32:52;22.50;99.90
8662;DHT22;29684;47.722;9.388;2023-05-14T15:35:36;21.50;99.90
8662;DHT22;29684;47.722;9.388;2023-05-14T15:38:21;20.40;99.90
8662;DHT22;29684;47.722;9.388;2023-05-14T15:41:05;19.70;99.90
8662;DHT22;29684;47.722;9.388;2023-05-14T15:43:49;19.10;99.90
8662;DHT22;29684;47.722;9.388;2023-05-14T15:46:34;18.60;99.90
8662;DHT22;29684;47.722;9.388;2023-05-14T15:49:20;18.20;99.90
8662;DHT22;29684;47.722;9.388;2023-05-14T15:52:04;17.30;99.90
8662;DHT22;29684;47.722;9.388;2023-05-14T15:54:49;16.70;99.90
8662;DHT22;29684;47.722;9.388;2023-05-14T15:57:33;16.10;99.90
8662;DHT22;29684;47.722;9.388;2023-05-14T16:00:18;15.40;99.90
8662;DHT22;29684;47.722;9.388;2023-05-14T16:03:03;14.80;99.90
8662;DHT22;29684;47.722;9.388;2023-05-14T16:05:47;14.40;99.90
8662;DHT22;29684;47.722;9.388;2023-05-14T16:08:32;13.40;99.90
8662;DHT22;29684;47.722;9.388;2023-05-14T16:11:17;12.70;99.90
8662;DHT22;29684;47.722;9.388;2023-05-14T16:14:01;12.50;99.90
8662;DHT22;29684;47.722;9.388;2023-05-14T16:16:45;12.30;99.90
8662;DHT22;29684;47.722;9.388;2023-05-14T16:19:29;12.20;99.90
8662;DHT22;29684;47.722;9.388;2023-05-14T16:22:13;12.10;99.90
8662;DHT22;29684;47.722;9.388;2023-05-14T16:24:58;11.90;99.90
8662;DHT22;29684;47.722;9.388;2023-05-14T16:27:42;11.90;99.90
8662;DHT22;29684;47.722;9.388;2023-05-14T16:30:27;11.90;99.90
8662;DHT22;29684;47.722;9.388;2023-05-14T16:33:11;11.90;99.90
8662;DHT22;29684;47.722;9.388;2023-05-14T16:35:55;12.00;99.90
8662;DHT22;29684;47.722;9.388;2023-05-14T16:38:39;12.10;99.90
8662;DHT22;29684;47.722;9.388;2023-05-14T16:41:23;12.10;99.90
8662;DHT22;29684;47.722;9.388;2023-05-14T16:44:07;12.10;99.90
8662;DHT22;29684;47.722;9.388;2023-05-14T16:46:51;12.10;99.90
8662;DHT22;29684;47.722;9.388;2023-05-14T16:49:36;12.00;99.90
8662;DHT22;29684;47.722;9.388;2023-05-14T16:52:26;12.00;99.90
8662;DHT22;29684;47.722;9.388;2023-05-14T16:55:10;12.00;99.90
8662;DHT22;29684;47.722;9.388;2023-05-14T16:57:55;12.10;99.90
8662;DHT22;29684;47.722;9.388;2023-05-14T17:00:39;12.10;99.90
8662;DHT22;29684;47.722;9.388;2023-05-14T17:03:23;12.20;99.90
8662;DHT22;29684;47.722;9.388;2023-05-14T17:06:07;12.10;99.90
8662;DHT22;29684;47.722;9.388;2023-05-14T17:08:52;11.70;99.90
8662;DHT22;29684;47.722;9.388;2023-05-14T17:11:36;11.30;99.90
8662;DHT22;29684;47.722;9.388;2023-05-14T17:14:21;11.30;99.90
8662;DHT22;29684;47.722;9.388;2023-05-14T17:17:05;11.20;99.90
8662;DHT22;29684;47.722;9.388;2023-05-14T17:19:49;11.10;99.90
8662;DHT22;29684;47.722;9.388;2023-05-14T17:22:33;11.10;99.90
8662;DHT22;29684;47.722;9.388;2023-05-14T17:25:18;11.10;99.90
8662;DHT22;29684;47.722;9.388;2023-05-14T17:28:02;11.00;99.90
8662;DHT22;29684;47.722;9.388;2023-05-14T17:30:47;11.00;99.90
8662;DHT22;29684;47.722;9.388;2023-05-14T17:33:31;11.10;99.90
8662;DHT22;29684;47.722;9.388;2023-05-14T17:36:15;11.10;99.90
8662;DHT22;29684;47.722;9.388;2023-05-14T17:38:59;11.00;99.90
8662;DHT22;29684;47.722;9.388;2023-05-14T17:41:43;11.00;99.90